createdAt,value
2023-05-11T00:00:12.764Z,25.58
2023-05-11T00:03:19.136Z,25.90
2023-05-11T00:06:26.700Z,23.73
2023-05-11T00:09:34.058Z,25.17
2023-05-11T00:12:40.426Z,21.25
2023-05-11T00:15:48.149Z,23.23
2023-05-11T00:18:53.030Z,21.83
2023-05-11T00:22:03.272Z,22.42
2023-05-11T00:25:08.829Z,21.52
2023-05-11T00:28:14.008Z,22.60
2023-05-11T00:31:18.430Z,24.70
2023-05-11T00:34:24.039Z,21.73
2023-05-11T00:37:28.415Z,27.88
2023-05-11T00:40:34.708Z,25.83
2023-05-11T00:43:41.570Z,26.08
2023-05-11T00:46:51.650Z,30.00
2023-05-11T00:49:58.501Z,26.55
2023-05-11T00:53:12.199Z,28.67
2023-05-11T00:56:20.304Z,29.15
2023-05-11T00:59:30.299Z,26.13
2023-05-11T01:02:37.930Z,26.70
2023-05-11T01:06:02.360Z,24.45
2023-05-11T01:09:18.705Z,25.48
2023-05-11T01:13:01.054Z,24.95
2023-05-11T01:16:15.149Z,28.05
2023-05-11T01:19:39.818Z,27.67
2023-05-11T01:23:04.160Z,26.55
2023-05-11T01:26:35.426Z,25.83
2023-05-11T01:30:01.445Z,28.05
2023-05-11T01:33:12.242Z,31.67
2023-05-11T01:36:20.793Z,29.60
2023-05-11T01:39:42.980Z,34.63
2023-05-11T01:43:05.093Z,32.08
2023-05-11T01:46:13.317Z,36.08
2023-05-11T01:49:20.036Z,29.50
2023-05-11T01:52:28.601Z,27.50
2023-05-11T01:55:36.655Z,29.55
2023-05-11T01:58:43.815Z,31.35
2023-05-11T02:02:14.387Z,32.83
2023-05-11T02:05:25.266Z,30.58
2023-05-11T02:11:32.948Z,31.95
2023-05-11T02:14:39.224Z,32.30
2023-05-11T02:17:44.077Z,33.33
2023-05-11T02:20:49.700Z,32.67
2023-05-11T02:23:54.886Z,34.08
2023-05-11T02:26:59.201Z,28.67
2023-05-11T02:30:06.090Z,31.23
2023-05-11T02:33:14.697Z,32.75
2023-05-11T02:36:23.892Z,27.33
2023-05-11T02:39:35.693Z,29.17
2023-05-11T02:42:42.447Z,27.33
2023-05-11T02:45:48.215Z,27.45
2023-05-11T02:49:00.915Z,25.65
2023-05-11T02:52:08.126Z,26.88
2023-05-11T02:55:15.218Z,26.27
2023-05-11T02:58:20.220Z,24.25
2023-05-11T03:01:25.907Z,27.33
2023-05-11T03:04:31.268Z,24.70
2023-05-11T03:08:25.058Z,24.27
2023-05-11T03:11:31.536Z,23.25
2023-05-11T03:14:36.811Z,22.63
2023-05-11T03:17:41.807Z,26.13
2023-05-11T03:20:48.102Z,25.23
2023-05-11T03:23:54.068Z,21.77
2023-05-11T03:26:59.368Z,22.27
2023-05-11T03:30:07.578Z,24.15
2023-05-11T03:33:21.005Z,20.23
2023-05-11T03:36:30.003Z,21.10
2023-05-11T03:43:59.826Z,19.30
2023-05-11T03:47:06.783Z,17.05
2023-05-11T03:50:11.687Z,18.70
2023-05-11T03:53:16.830Z,16.70
2023-05-11T03:56:21.565Z,15.18
2023-05-11T03:59:28.485Z,15.73
2023-05-11T04:02:35.155Z,16.60
2023-05-11T04:05:40.917Z,14.88
2023-05-11T04:08:45.246Z,16.50
2023-05-11T04:11:50.442Z,16.50
2023-05-11T04:14:55.201Z,19.58
2023-05-11T04:17:59.482Z,19.48
2023-05-11T04:21:04.154Z,19.73
2023-05-11T04:24:08.644Z,17.20
2023-05-11T04:27:13.090Z,20.48
2023-05-11T04:30:18.100Z,22.92
2023-05-11T04:33:23.728Z,21.55
2023-05-11T04:36:28.144Z,21.25
2023-05-11T04:39:38.949Z,20.20
2023-05-11T04:42:43.448Z,18.52
2023-05-11T04:45:49.362Z,16.23
2023-05-11T04:48:53.643Z,17.00
2023-05-11T04:51:58.236Z,17.83
2023-05-11T04:55:02.591Z,19.75
2023-05-11T04:58:06.970Z,18.48
2023-05-11T05:04:16.670Z,15.98
2023-05-11T05:07:21.216Z,16.92
2023-05-11T05:10:26.076Z,14.85
2023-05-11T05:13:30.991Z,17.80
2023-05-11T05:16:35.559Z,15.63
2023-05-11T05:19:39.705Z,15.32
2023-05-11T05:22:43.925Z,17.67
2023-05-11T05:25:48.234Z,14.38
2023-05-11T05:28:52.765Z,16.10
2023-05-11T05:31:59.037Z,16.83
2023-05-11T05:35:03.986Z,15.20
2023-05-11T05:38:08.037Z,15.15
2023-05-11T05:41:12.203Z,14.95
2023-05-11T05:44:17.445Z,14.77
2023-05-11T05:47:21.626Z,13.25
2023-05-11T05:50:27.364Z,15.38
2023-05-11T05:53:31.444Z,13.35
2023-05-11T05:59:39.965Z,11.93
2023-05-11T06:02:44.382Z,11.45
2023-05-11T06:05:48.985Z,10.80
2023-05-11T06:08:53.815Z,11.80
2023-05-11T06:11:58.064Z,12.43
2023-05-11T06:15:02.658Z,13.38
2023-05-11T06:18:07.180Z,13.68
2023-05-11T06:21:11.577Z,11.43
2023-05-11T06:24:15.862Z,12.00
2023-05-11T06:27:20.776Z,11.70
2023-05-11T06:30:25.181Z,11.32
2023-05-11T06:33:30.115Z,12.43
2023-05-11T06:36:34.619Z,12.43
2023-05-11T06:39:38.737Z,13.57
2023-05-11T06:45:47.916Z,12.07
2023-05-11T06:48:52.494Z,12.27
2023-05-11T06:51:56.744Z,12.98
2023-05-11T06:55:01.571Z,11.05
2023-05-11T06:58:05.885Z,10.65
2023-05-11T07:01:12.023Z,11.45
2023-05-11T07:04:16.708Z,10.73
2023-05-11T07:07:21.180Z,10.43
2023-05-11T07:10:26.136Z,11.05
2023-05-11T07:13:31.100Z,10.95
2023-05-11T07:16:38.272Z,10.43
2023-05-11T07:19:42.617Z,10.40
2023-05-11T07:22:46.821Z,10.55
2023-05-11T07:25:53.511Z,11.00
2023-05-11T07:28:57.932Z,11.00
2023-05-11T07:32:02.341Z,10.65
2023-05-11T07:35:07.720Z,10.98
2023-05-11T07:38:13.718Z,11.10
2023-05-11T07:41:19.166Z,11.35
2023-05-11T07:44:23.437Z,10.40
2023-05-11T07:47:27.861Z,11.82
2023-05-11T07:50:32.384Z,10.60
2023-05-11T07:53:36.563Z,11.77
2023-05-11T07:56:40.830Z,12.40
2023-05-11T08:05:54.149Z,12.32
2023-05-11T08:08:58.247Z,12.70
2023-05-11T08:21:16.135Z,12.95
2023-05-11T08:24:20.728Z,12.35
2023-05-11T08:27:24.763Z,14.85
2023-05-11T08:30:30.066Z,13.98
2023-05-11T08:33:38.298Z,13.98
2023-05-11T08:36:43.079Z,14.30
2023-05-11T08:39:48.075Z,14.40
2023-05-11T08:42:57.121Z,12.90
2023-05-11T08:46:07.358Z,13.57
2023-05-11T08:49:11.996Z,13.23
2023-05-11T08:52:18.263Z,18.05
2023-05-11T08:55:26.169Z,15.18
2023-05-11T08:58:32.041Z,16.77
2023-05-11T09:01:37.450Z,15.00
2023-05-11T09:04:43.146Z,17.88
2023-05-11T09:07:50.257Z,17.55
2023-05-11T09:10:55.038Z,18.63
2023-05-11T09:13:59.374Z,17.73
2023-05-11T09:17:04.517Z,17.45
2023-05-11T09:20:09.954Z,18.38
2023-05-11T09:23:18.871Z,15.15
2023-05-11T09:26:29.976Z,15.88
2023-05-11T09:29:34.487Z,14.07
2023-05-11T09:32:55.396Z,14.35
2023-05-11T09:36:00.127Z,14.02
2023-05-11T09:39:05.014Z,13.57
2023-05-11T09:42:21.848Z,13.70
2023-05-11T09:45:47.733Z,12.60
2023-05-11T09:49:02.721Z,14.45
2023-05-11T09:52:07.245Z,14.73
2023-05-11T09:55:12.783Z,15.85
2023-05-11T09:58:16.969Z,15.40
2023-05-11T10:01:34.952Z,14.07
2023-05-11T10:04:39.818Z,14.45
2023-05-11T10:07:45.556Z,14.43
2023-05-11T10:10:49.898Z,15.15
2023-05-11T10:13:54.271Z,16.08
2023-05-11T10:17:01.740Z,16.42
2023-05-11T10:20:07.393Z,16.30
2023-05-11T10:23:12.828Z,16.63
2023-05-11T10:26:17.695Z,17.50
2023-05-11T10:29:22.568Z,18.98
2023-05-11T10:32:27.600Z,17.55
2023-05-11T10:35:32.534Z,19.88
2023-05-11T10:38:37.088Z,18.73
2023-05-11T10:42:26.987Z,19.65
2023-05-11T10:46:35.151Z,17.80
2023-05-11T10:50:09.169Z,17.30
2023-05-11T10:53:50.465Z,18.52
2023-05-11T10:57:00.772Z,15.77
2023-05-11T11:00:47.812Z,17.08
2023-05-11T11:04:05.434Z,18.00
2023-05-11T11:07:09.920Z,17.42
2023-05-11T11:10:34.911Z,18.00
2023-05-11T11:14:02.423Z,18.27
2023-05-11T11:17:18.984Z,19.98
2023-05-11T11:20:47.307Z,20.48
2023-05-11T11:23:52.081Z,22.48
2023-05-11T11:26:57.294Z,21.48
2023-05-11T11:30:24.716Z,23.30
2023-05-11T11:33:31.421Z,24.13
2023-05-11T11:37:13.320Z,23.10
2023-05-11T11:40:50.488Z,21.85
2023-05-11T11:44:08.459Z,23.10
2023-05-11T11:47:27.217Z,22.52
2023-05-11T11:50:38.331Z,22.50
2023-05-11T11:54:11.858Z,21.90
2023-05-11T11:57:40.385Z,22.10
2023-05-11T12:00:59.803Z,20.60
2023-05-11T12:04:41.058Z,18.00
2023-05-11T12:07:52.529Z,17.85
2023-05-11T12:10:58.861Z,21.13
2023-05-11T12:14:03.436Z,20.05
2023-05-11T12:17:13.600Z,20.20
2023-05-11T12:20:20.078Z,19.83
2023-05-11T12:23:24.432Z,17.63
2023-05-11T12:26:31.089Z,18.27
2023-05-11T12:29:37.492Z,18.00
2023-05-11T12:32:44.175Z,18.25
2023-05-11T12:35:56.719Z,16.75
2023-05-11T12:43:25.090Z,18.08
2023-05-11T12:50:29.543Z,18.38
2023-05-11T12:53:39.368Z,18.73
2023-05-11T12:56:49.885Z,19.15
2023-05-11T13:00:16.247Z,18.27
2023-05-11T13:03:30.812Z,18.10
2023-05-11T13:09:43.200Z,17.88
2023-05-11T13:12:52.075Z,16.92
2023-05-11T13:16:02.648Z,17.17
2023-05-11T13:19:09.350Z,17.20
2023-05-11T13:22:15.713Z,16.25
2023-05-11T13:25:23.744Z,16.40
2023-05-11T13:28:31.112Z,16.77
2023-05-11T13:31:53.368Z,16.00
2023-05-11T13:35:00.004Z,16.20
2023-05-11T13:38:05.790Z,17.25
2023-05-11T13:41:11.975Z,15.43
2023-05-11T13:44:20.367Z,16.30
2023-05-11T13:47:25.445Z,15.57
2023-05-11T13:50:32.138Z,15.45
2023-05-11T13:53:36.852Z,15.43
2023-05-11T13:56:41.438Z,15.55
2023-05-11T13:59:45.661Z,13.82
2023-05-11T14:02:50.797Z,11.93
2023-05-11T14:05:54.937Z,12.27
2023-05-11T14:08:59.145Z,14.90
2023-05-11T14:12:04.203Z,11.63
2023-05-11T14:15:10.432Z,12.63
2023-05-11T14:18:14.864Z,11.30
2023-05-11T14:21:19.638Z,11.23
2023-05-11T14:24:23.790Z,11.40
2023-05-11T14:27:28.941Z,11.35
2023-05-11T14:30:33.630Z,11.18
2023-05-11T14:33:39.434Z,11.15
2023-05-11T14:36:43.673Z,12.40
2023-05-11T14:42:51.619Z,11.13
2023-05-11T14:45:55.853Z,11.52
2023-05-11T14:49:00.051Z,12.73
2023-05-11T14:52:05.397Z,12.20
2023-05-11T14:55:09.775Z,12.60
2023-05-11T14:58:13.945Z,12.70
2023-05-11T15:01:18.397Z,12.52
2023-05-11T15:04:23.272Z,13.15
2023-05-11T15:07:27.840Z,13.18
2023-05-11T15:10:32.991Z,12.45
2023-05-11T15:13:37.784Z,12.70
2023-05-11T15:16:42.364Z,12.68
2023-05-11T15:19:47.282Z,11.13
2023-05-11T15:22:51.913Z,12.85
2023-05-11T15:26:01.055Z,12.18
2023-05-11T15:29:06.044Z,13.98
2023-05-11T15:32:51.034Z,15.20
2023-05-11T15:36:26.409Z,15.35
2023-05-11T15:39:43.233Z,15.35
2023-05-11T15:42:51.042Z,16.40
2023-05-11T15:45:59.881Z,15.85
2023-05-11T15:49:07.697Z,16.48
2023-05-11T15:52:16.916Z,16.13
2023-05-11T15:55:37.081Z,19.05
2023-05-11T15:58:43.369Z,15.85
2023-05-11T16:01:48.865Z,17.63
2023-05-11T16:04:53.270Z,18.25
2023-05-11T16:07:57.542Z,18.20
2023-05-11T16:11:02.551Z,17.98
2023-05-11T16:14:06.834Z,19.52
2023-05-11T16:17:11.484Z,19.05
2023-05-11T16:20:16.576Z,22.58
2023-05-11T16:23:21.260Z,20.73
2023-05-11T16:26:27.878Z,20.08
2023-05-11T16:29:32.175Z,21.35
2023-05-11T16:32:36.680Z,21.45
2023-05-11T16:35:41.010Z,22.00
2023-05-11T16:38:45.389Z,22.48
2023-05-11T16:41:49.929Z,23.77
2023-05-11T16:44:54.550Z,22.48
2023-05-11T16:47:59.415Z,22.80
2023-05-11T16:51:03.899Z,22.05
2023-05-11T16:54:08.461Z,20.88
2023-05-11T16:57:13.256Z,21.85
2023-05-11T17:00:18.777Z,21.85
2023-05-11T17:03:23.324Z,19.58
2023-05-11T17:06:28.158Z,22.70
2023-05-11T17:09:32.380Z,21.65
2023-05-11T17:12:36.790Z,20.42
2023-05-11T17:15:41.820Z,21.02
2023-05-11T17:18:47.122Z,21.27
2023-05-11T17:21:51.828Z,20.88
2023-05-11T17:24:56.369Z,19.70
2023-05-11T17:28:01.013Z,19.60
2023-05-11T17:31:12.106Z,21.17
2023-05-11T17:34:17.833Z,19.42
2023-05-11T17:37:31.186Z,19.60
2023-05-11T17:40:36.751Z,19.10
2023-05-11T17:43:40.956Z,20.15
2023-05-11T17:46:45.382Z,20.35
2023-05-11T17:49:50.096Z,19.77
2023-05-11T17:52:54.768Z,19.88
2023-05-11T17:56:00.158Z,19.85
2023-05-11T17:59:09.101Z,19.10
2023-05-11T18:02:13.965Z,18.55
2023-05-11T18:05:18.417Z,19.08
2023-05-11T18:08:22.579Z,18.98
2023-05-11T18:11:27.256Z,17.23
2023-05-11T18:14:31.586Z,17.30
2023-05-11T18:17:36.310Z,17.83
2023-05-11T18:20:45.247Z,16.70
2023-05-11T18:23:49.668Z,19.27
2023-05-11T18:26:53.947Z,17.98
2023-05-11T18:29:58.807Z,17.33
2023-05-11T18:33:03.510Z,20.48
2023-05-11T18:36:08.234Z,22.40
2023-05-11T18:39:14.184Z,22.20
2023-05-11T18:42:19.116Z,24.45
2023-05-11T18:45:23.139Z,21.92
2023-05-11T18:48:27.314Z,24.65
2023-05-11T18:51:31.772Z,25.48
2023-05-11T18:54:36.051Z,25.25
2023-05-11T18:57:40.598Z,27.98
2023-05-11T19:00:44.875Z,27.52
2023-05-11T19:03:49.265Z,28.20
2023-05-11T19:06:56.949Z,28.08
2023-05-11T19:10:01.311Z,28.60
2023-05-11T19:13:07.734Z,29.45
2023-05-11T19:16:12.335Z,29.55
2023-05-11T19:19:16.654Z,28.20
2023-05-11T19:22:22.174Z,29.17
2023-05-11T19:25:26.479Z,30.67
2023-05-11T19:28:30.744Z,30.50
2023-05-11T19:31:35.823Z,32.13
2023-05-11T19:34:40.671Z,30.90
2023-05-11T19:37:47.993Z,31.95
2023-05-11T19:40:52.691Z,30.88
2023-05-11T19:43:57.340Z,32.88
2023-05-11T19:47:02.277Z,37.33
2023-05-11T19:50:08.774Z,34.08
2023-05-11T19:53:13.527Z,34.20
2023-05-11T19:56:18.299Z,33.80
2023-05-11T19:59:24.306Z,32.60
2023-05-11T20:02:28.814Z,33.40
2023-05-11T20:05:34.008Z,31.45
2023-05-11T20:08:38.169Z,31.23
2023-05-11T20:11:42.397Z,31.77
2023-05-11T20:14:49.809Z,32.63
2023-05-11T20:17:54.389Z,34.42
2023-05-11T20:20:58.667Z,34.53
2023-05-11T20:24:03.805Z,35.40
2023-05-11T20:27:09.688Z,31.80
2023-05-11T20:30:15.246Z,33.92
2023-05-11T20:36:27.235Z,34.67
2023-05-11T20:39:31.657Z,31.92
2023-05-11T20:42:38.290Z,32.03
2023-05-11T20:45:43.652Z,33.35
2023-05-11T20:48:51.478Z,31.55
2023-05-11T20:51:57.025Z,32.83
2023-05-11T20:55:03.530Z,30.95
2023-05-11T20:58:07.977Z,32.83
2023-05-11T21:01:12.319Z,32.90
2023-05-11T21:04:17.025Z,35.08
2023-05-11T21:07:23.030Z,33.25
2023-05-11T21:10:27.257Z,32.58
2023-05-11T21:13:31.441Z,32.95
2023-05-11T21:16:35.623Z,31.30
2023-05-11T21:19:39.977Z,32.30
2023-05-11T21:22:44.857Z,31.58
2023-05-11T21:25:58.040Z,31.08
2023-05-11T21:29:02.504Z,30.38
2023-05-11T21:32:07.253Z,31.55
2023-05-11T21:35:11.726Z,29.77
2023-05-11T21:41:21.105Z,26.98
2023-05-11T21:44:25.569Z,26.90
2023-05-11T21:47:30.333Z,28.05
2023-05-11T21:50:34.597Z,26.95
2023-05-11T21:53:39.249Z,24.70
2023-05-11T21:56:43.375Z,25.05
2023-05-11T21:59:49.447Z,23.38
2023-05-11T22:02:55.180Z,23.33
2023-05-11T22:05:59.834Z,22.77
2023-05-11T22:09:04.920Z,22.38
2023-05-11T22:12:09.575Z,21.10
2023-05-11T22:15:14.327Z,20.58
2023-05-11T22:18:18.663Z,20.88
2023-05-11T22:21:26.624Z,18.50
2023-05-11T22:24:31.342Z,18.27
2023-05-11T22:27:36.021Z,18.08
2023-05-11T22:30:40.763Z,17.35
2023-05-11T22:33:45.230Z,15.38
2023-05-11T22:36:50.088Z,15.48
2023-05-11T22:39:55.002Z,15.52
2023-05-11T22:42:59.308Z,14.45
2023-05-11T22:46:04.911Z,12.18
2023-05-11T22:49:09.404Z,12.48
2023-05-11T22:55:17.945Z,11.82
2023-05-11T22:58:22.757Z,11.63
2023-05-11T23:01:28.685Z,10.38
2023-05-11T23:04:33.270Z,10.63
2023-05-11T23:10:42.001Z,10.70
2023-05-11T23:13:46.756Z,10.65
2023-05-11T23:16:51.100Z,9.18
2023-05-11T23:19:55.515Z,9.07
2023-05-11T23:22:59.716Z,9.60
2023-05-11T23:26:03.869Z,8.75
2023-05-11T23:32:12.150Z,8.63
2023-05-11T23:35:16.958Z,8.25
2023-05-11T23:38:21.282Z,9.75
2023-05-11T23:41:25.358Z,8.73
2023-05-11T23:44:29.819Z,8.52
2023-05-11T23:47:34.365Z,8.82
2023-05-11T23:50:39.014Z,8.75
2023-05-11T23:53:43.684Z,8.48
2023-05-11T23:56:48.022Z,8.80
2023-05-11T23:59:52.125Z,9.13
